createdAt,value
2017-06-24T00:00:43.597Z,23.5
2017-06-24T00:01:45.668Z,23.5
2017-06-24T00:02:47.725Z,23.5
2017-06-24T00:03:49.785Z,23.5
2017-06-24T00:04:51.851Z,23.5
2017-06-24T00:05:53.906Z,23.5
2017-06-24T00:06:55.978Z,23.5
2017-06-24T00:07:58.042Z,23.5
2017-06-24T00:09:00.101Z,23.5
2017-06-24T00:10:02.168Z,23.5
2017-06-24T00:11:04.229Z,23.5
2017-06-24T00:12:06.300Z,23.5
2017-06-24T00:13:09.034Z,23.5
2017-06-24T00:14:11.300Z,23.4
2017-06-24T00:15:13.365Z,23.5
2017-06-24T00:16:15.764Z,23.5
2017-06-24T00:17:17.832Z,23.4
2017-06-24T00:18:19.895Z,23.4
2017-06-24T00:19:21.965Z,23.5
2017-06-24T00:20:24.372Z,23.5
2017-06-24T00:21:26.411Z,23.5
2017-06-24T00:22:28.483Z,23.5
2017-06-24T00:23:30.556Z,23.5
2017-06-24T00:24:32.618Z,23.5
2017-06-24T00:25:34.680Z,23.4
2017-06-24T00:26:37.093Z,23.4
2017-06-24T00:27:39.152Z,23.4
2017-06-24T00:28:41.536Z,23.4
2017-06-24T00:29:43.957Z,23.4
2017-06-24T00:30:46.033Z,23.4
2017-06-24T00:31:48.098Z,23.4
2017-06-24T00:32:50.166Z,23.4
2017-06-24T00:33:52.433Z,23.4
2017-06-24T00:34:54.503Z,23.4
2017-06-24T00:35:56.902Z,23.5
2017-06-24T00:36:58.966Z,23.5
2017-06-24T00:38:01.040Z,23.5
2017-06-24T00:39:03.103Z,23.4
2017-06-24T00:40:05.195Z,23.4
2017-06-24T00:41:07.624Z,23.4
2017-06-24T00:42:09.677Z,23.4
2017-06-24T00:43:12.102Z,23.4
2017-06-24T00:44:14.534Z,23.4
2017-06-24T00:45:16.606Z,23.4
2017-06-24T00:46:18.663Z,23.4
2017-06-24T00:47:20.739Z,23.4
2017-06-24T00:48:22.793Z,23.4
2017-06-24T00:49:24.857Z,23.4
2017-06-24T00:50:26.915Z,23.4
2017-06-24T00:51:28.992Z,23.4
2017-06-24T00:52:31.049Z,23.4
2017-06-24T00:53:33.117Z,23.4
2017-06-24T00:54:35.213Z,23.4
2017-06-24T00:55:37.287Z,23.4
2017-06-24T00:56:39.339Z,23.4
2017-06-24T00:57:41.751Z,23.4
2017-06-24T00:58:43.858Z,23.4
2017-06-24T00:59:46.265Z,23.4
2017-06-24T01:00:48.316Z,23.4
2017-06-24T01:01:50.388Z,23.4
2017-06-24T01:02:52.787Z,23.4
2017-06-24T01:03:55.198Z,23.4
2017-06-24T01:04:57.260Z,23.4
2017-06-24T01:05:59.317Z,23.4
2017-06-24T01:07:01.384Z,23.4
2017-06-24T01:08:03.452Z,23.4
2017-06-24T01:09:05.500Z,23.4
2017-06-24T01:10:07.581Z,23.4
2017-06-24T01:11:09.641Z,23.4
2017-06-24T01:12:11.702Z,23.4
2017-06-24T01:13:13.770Z,23.4
2017-06-24T01:14:15.830Z,23.4
2017-06-24T01:15:18.240Z,23.4
2017-06-24T01:16:20.631Z,23.4
2017-06-24T01:17:22.697Z,23.5
2017-06-24T01:18:24.773Z,23.5
2017-06-24T01:19:26.821Z,23.4
2017-06-24T01:20:29.241Z,23.4
2017-06-24T01:21:31.298Z,23.4
2017-06-24T01:22:33.721Z,23.4
2017-06-24T01:23:35.790Z,23.4
2017-06-24T01:24:37.838Z,23.4
2017-06-24T01:25:39.911Z,23.4
2017-06-24T01:26:41.971Z,23.4
2017-06-24T01:27:44.924Z,23.5
2017-06-24T01:28:46.991Z,23.4
2017-06-24T01:29:49.043Z,23.4
2017-06-24T01:30:51.451Z,23.4
2017-06-24T01:31:53.518Z,23.5
2017-06-24T01:32:55.585Z,23.5
2017-06-24T01:33:57.990Z,23.5
2017-06-24T01:35:00.050Z,23.5
2017-06-24T01:36:02.120Z,23.5
2017-06-24T01:37:04.180Z,23.4
2017-06-24T01:38:06.243Z,23.4
2017-06-24T01:39:08.648Z,23.4
2017-06-24T01:40:10.718Z,23.4
2017-06-24T01:41:12.780Z,23.5
2017-06-24T01:42:15.186Z,23.4
2017-06-24T01:43:17.244Z,23.4
2017-06-24T01:44:19.657Z,23.4
2017-06-24T01:45:21.721Z,23.3
2017-06-24T01:46:24.129Z,23.4
2017-06-24T01:47:26.194Z,23.4
2017-06-24T01:48:28.265Z,23.5
2017-06-24T01:49:30.311Z,23.5
2017-06-24T01:50:32.369Z,23.5
2017-06-24T01:51:34.456Z,23.5
2017-06-24T01:52:36.522Z,23.5
2017-06-24T01:53:38.591Z,23.5
2017-06-24T01:54:40.652Z,23.4
2017-06-24T01:55:43.045Z,23.5
2017-06-24T01:56:45.440Z,23.4
2017-06-24T01:57:47.516Z,23.5
2017-06-24T01:58:49.568Z,23.5
2017-06-24T01:59:51.629Z,23.5
2017-06-24T02:00:54.060Z,23.5
2017-06-24T02:01:56.115Z,23.5
2017-06-24T02:02:58.185Z,23.5
2017-06-24T02:04:00.581Z,23.5
2017-06-24T02:05:02.659Z,23.5
2017-06-24T02:06:04.726Z,23.5
2017-06-24T02:07:06.778Z,23.5
2017-06-24T02:08:08.851Z,23.4
2017-06-24T02:09:10.922Z,23.4
2017-06-24T02:10:12.977Z,23.4
2017-06-24T02:11:15.042Z,23.4
2017-06-24T02:12:17.127Z,23.4
2017-06-24T02:13:19.194Z,23.4
2017-06-24T02:14:21.587Z,23.4
2017-06-24T02:15:23.980Z,23.4
2017-06-24T02:16:26.061Z,23.4
2017-06-24T02:17:28.143Z,23.4
2017-06-24T02:18:30.541Z,23.5
2017-06-24T02:19:32.608Z,23.4
2017-06-24T02:20:34.673Z,23.4
2017-06-24T02:21:36.738Z,23.4
2017-06-24T02:22:38.800Z,23.4
2017-06-24T02:23:40.866Z,23.4
2017-06-24T02:24:43.280Z,23.4
2017-06-24T02:25:45.334Z,23.4
2017-06-24T02:26:47.759Z,23.4
2017-06-24T02:27:49.821Z,23.4
2017-06-24T02:28:51.892Z,23.4
2017-06-24T02:29:53.953Z,23.4
2017-06-24T02:30:56.027Z,23.4
2017-06-24T02:31:58.095Z,23.4
2017-06-24T02:33:00.158Z,23.4
2017-06-24T02:34:02.216Z,23.4
2017-06-24T02:35:04.277Z,23.4
2017-06-24T02:36:06.342Z,23.5
2017-06-24T02:37:08.403Z,23.5
2017-06-24T02:38:10.471Z,23.4
2017-06-24T02:39:12.871Z,23.4
2017-06-24T02:40:14.929Z,23.4
2017-06-24T02:41:17.215Z,23.4
2017-06-24T02:42:19.280Z,23.4
2017-06-24T02:43:21.329Z,23.4
2017-06-24T02:44:23.401Z,23.4
2017-06-24T02:45:25.835Z,23.4
2017-06-24T02:46:27.901Z,23.4
2017-06-24T02:47:29.970Z,23.5
2017-06-24T02:48:32.026Z,23.5
2017-06-24T02:49:34.111Z,23.4
2017-06-24T02:50:36.518Z,23.4
2017-06-24T02:51:38.590Z,23.4
2017-06-24T02:52:40.665Z,23.4
2017-06-24T02:53:42.726Z,23.4
2017-06-24T02:54:44.783Z,23.4
2017-06-24T02:55:46.853Z,23.4
2017-06-24T02:56:48.907Z,23.4
2017-06-24T02:57:51.311Z,23.5
2017-06-24T02:58:53.375Z,23.4
2017-06-24T02:59:55.440Z,23.4
2017-06-24T03:00:57.504Z,23.5
2017-06-24T03:01:59.564Z,23.5
2017-06-24T03:03:01.626Z,23.4
2017-06-24T03:04:03.710Z,23.5
2017-06-24T03:05:05.758Z,23.5
2017-06-24T03:06:07.835Z,23.5
2017-06-24T03:07:09.899Z,23.5
2017-06-24T03:08:12.297Z,23.5
2017-06-24T03:09:14.705Z,23.5
2017-06-24T03:10:16.971Z,23.5
2017-06-24T03:11:19.031Z,23.5
2017-06-24T03:12:21.112Z,23.5
2017-06-24T03:13:23.169Z,23.5
2017-06-24T03:14:25.565Z,23.5
2017-06-24T03:15:27.618Z,23.5
2017-06-24T03:16:29.704Z,23.5
2017-06-24T03:17:31.775Z,23.5
2017-06-24T03:18:33.836Z,23.5
2017-06-24T03:19:35.905Z,23.5
2017-06-24T03:20:37.965Z,23.5
2017-06-24T03:21:40.377Z,23.5
2017-06-24T03:22:42.790Z,23.5
2017-06-24T03:23:44.850Z,23.5
2017-06-24T03:24:46.949Z,23.5
2017-06-24T03:25:49.348Z,23.5
2017-06-24T03:26:51.410Z,23.5
2017-06-24T03:27:53.469Z,23.5
2017-06-24T03:28:55.549Z,23.5
2017-06-24T03:29:57.627Z,23.5
2017-06-24T03:30:59.679Z,23.5
2017-06-24T03:32:01.746Z,23.5
2017-06-24T03:33:03.819Z,23.5
2017-06-24T03:34:05.898Z,23.5
2017-06-24T03:35:07.963Z,23.5
2017-06-24T03:36:10.041Z,23.5
2017-06-24T03:37:12.112Z,23.6
2017-06-24T03:38:14.166Z,23.6
2017-06-24T03:39:16.228Z,23.6
2017-06-24T03:40:18.299Z,23.5
2017-06-24T03:41:20.704Z,23.5
2017-06-24T03:42:22.768Z,23.5
2017-06-24T03:43:24.835Z,23.5
2017-06-24T03:44:26.937Z,23.5
2017-06-24T03:45:28.984Z,23.5
2017-06-24T03:46:31.042Z,23.5
2017-06-24T03:47:33.463Z,23.6
2017-06-24T03:48:35.525Z,23.5
2017-06-24T03:49:37.933Z,23.6
2017-06-24T03:50:39.991Z,23.5
2017-06-24T03:51:42.077Z,23.5
2017-06-24T03:52:44.500Z,23.6
2017-06-24T03:53:46.565Z,23.6
2017-06-24T03:54:48.666Z,23.5
2017-06-24T03:55:51.063Z,23.6
2017-06-24T03:56:53.124Z,23.5
2017-06-24T03:57:55.196Z,23.6
2017-06-24T03:58:57.465Z,23.6
2017-06-24T03:59:59.534Z,23.5
2017-06-24T04:01:01.589Z,23.6
2017-06-24T04:02:03.675Z,23.6
2017-06-24T04:03:05.749Z,23.6
2017-06-24T04:04:07.802Z,23.6
2017-06-24T04:05:10.406Z,23.6
2017-06-24T04:06:12.470Z,23.6
2017-06-24T04:07:14.535Z,23.6
2017-06-24T04:08:16.591Z,23.6
2017-06-24T04:09:18.645Z,23.6
2017-06-24T04:10:20.718Z,23.6
2017-06-24T04:11:22.777Z,23.6
2017-06-24T04:12:24.843Z,23.6
2017-06-24T04:13:26.924Z,23.6
2017-06-24T04:14:28.986Z,23.6
2017-06-24T04:15:31.049Z,23.6
2017-06-24T04:16:33.113Z,23.6
2017-06-24T04:17:35.184Z,23.6
2017-06-24T04:18:37.269Z,23.6
2017-06-24T04:19:39.330Z,23.6
2017-06-24T04:20:41.411Z,23.6
2017-06-24T04:21:43.477Z,23.6
2017-06-24T04:22:45.529Z,23.6
2017-06-24T04:23:47.604Z,23.6
2017-06-24T04:24:49.666Z,23.6
2017-06-24T04:25:52.066Z,23.6
2017-06-24T04:26:54.463Z,23.6
2017-06-24T04:27:56.521Z,23.6
2017-06-24T04:28:58.582Z,23.6
2017-06-24T04:30:00.654Z,23.6
2017-06-24T04:31:03.069Z,23.6
2017-06-24T04:32:05.141Z,23.6
2017-06-24T04:33:07.211Z,23.6
2017-06-24T04:34:09.273Z,23.6
2017-06-24T04:35:11.343Z,23.6
2017-06-24T04:36:13.403Z,23.6
2017-06-24T04:37:15.463Z,23.6
2017-06-24T04:38:17.538Z,23.6
2017-06-24T04:39:19.607Z,23.6
2017-06-24T04:40:21.673Z,23.6
2017-06-24T04:41:23.741Z,23.7
2017-06-24T04:42:25.820Z,23.7
2017-06-24T04:43:27.886Z,23.6
2017-06-24T04:44:30.288Z,23.7
2017-06-24T04:45:32.362Z,23.7
2017-06-24T04:46:34.421Z,23.7
2017-06-24T04:47:36.481Z,23.7
2017-06-24T04:48:38.556Z,23.7
2017-06-24T04:49:40.626Z,23.7
2017-06-24T04:50:43.046Z,23.7
2017-06-24T04:51:45.106Z,23.7
2017-06-24T04:52:47.167Z,23.7
2017-06-24T04:53:49.234Z,23.7
2017-06-24T04:54:51.295Z,23.7
2017-06-24T04:55:53.360Z,23.6
2017-06-24T04:56:55.431Z,23.6
2017-06-24T04:57:57.492Z,23.5
2017-06-24T04:59:00.105Z,23.4
2017-06-24T05:00:02.176Z,23.4
2017-06-24T05:01:04.608Z,23.3
2017-06-24T05:02:06.678Z,23.2
2017-06-24T05:03:08.728Z,23.2
2017-06-24T05:04:10.807Z,23.3
2017-06-24T05:05:12.872Z,23.4
2017-06-24T05:06:15.205Z,23.4
2017-06-24T05:07:17.648Z,23.4
2017-06-24T05:08:19.989Z,23.4
2017-06-24T05:09:22.060Z,23.4
2017-06-24T05:10:24.161Z,23.3
2017-06-24T05:11:26.241Z,23.4
2017-06-24T05:12:28.311Z,23.4
2017-06-24T05:13:30.395Z,23.4
2017-06-24T05:14:32.459Z,23.4
2017-06-24T05:15:34.540Z,23.4
2017-06-24T05:16:36.608Z,23.4
2017-06-24T05:17:38.683Z,23.5
2017-06-24T05:18:40.778Z,23.5
2017-06-24T05:19:42.837Z,23.5
2017-06-24T05:20:44.898Z,23.5
2017-06-24T05:21:47.006Z,23.5
2017-06-24T05:22:49.116Z,23.6
2017-06-24T05:23:51.197Z,23.6
2017-06-24T05:24:53.256Z,23.6
2017-06-24T05:25:55.345Z,23.7
2017-06-24T05:26:57.420Z,23.7
2017-06-24T05:27:59.744Z,23.7
2017-06-24T05:29:01.839Z,23.8
2017-06-24T05:30:03.934Z,23.8
2017-06-24T05:31:06.011Z,23.8
2017-06-24T05:32:11.042Z,23.8
2017-06-24T05:33:13.472Z,23.8
2017-06-24T05:34:16.261Z,23.8
2017-06-24T05:35:18.545Z,23.9
2017-06-24T05:36:20.659Z,23.8
2017-06-24T05:37:23.275Z,23.9
2017-06-24T05:38:28.286Z,23.9
2017-06-24T05:39:31.278Z,23.9
2017-06-24T05:40:33.798Z,23.9
2017-06-24T05:41:35.979Z,23.9
2017-06-24T05:42:38.145Z,24
2017-06-24T05:43:40.202Z,24
2017-06-24T05:44:42.311Z,24
2017-06-24T05:45:44.393Z,24
2017-06-24T05:46:46.469Z,24
2017-06-24T05:47:48.549Z,24
2017-06-24T05:48:50.710Z,24
2017-06-24T05:49:52.970Z,24.1
2017-06-24T05:50:55.462Z,24.1
2017-06-24T05:51:57.929Z,24.1
2017-06-24T05:53:01.347Z,24.1
2017-06-24T05:54:04.053Z,24.1
2017-06-24T05:55:06.369Z,24.1
2017-06-24T05:56:08.513Z,24.1
2017-06-24T05:57:10.617Z,24.1
2017-06-24T05:58:13.068Z,24.1
2017-06-24T05:59:17.202Z,24.1
2017-06-24T06:00:19.289Z,24.2
2017-06-24T06:01:21.386Z,24.2
2017-06-24T06:02:23.535Z,24.2
2017-06-24T06:03:25.947Z,24.2
2017-06-24T06:04:28.029Z,24.3
2017-06-24T06:05:30.099Z,24.3
2017-06-24T06:06:32.185Z,24.3
2017-06-24T06:07:34.266Z,24.3
2017-06-24T06:08:36.336Z,24.3
2017-06-24T06:09:38.762Z,24.4
2017-06-24T06:10:40.876Z,24.4
2017-06-24T06:11:42.938Z,24.4
2017-06-24T06:12:45.009Z,24.4
2017-06-24T06:13:47.080Z,24.5
2017-06-24T06:14:49.172Z,24.4
2017-06-24T06:15:51.242Z,24.5
2017-06-24T06:16:53.422Z,24.5
2017-06-24T06:17:55.521Z,24.5
2017-06-24T06:18:57.914Z,24.5
2017-06-24T06:20:00.094Z,24.6
2017-06-24T06:21:02.170Z,24.6
2017-06-24T06:22:04.484Z,24.6
2017-06-24T06:23:06.560Z,24.5
2017-06-24T06:24:08.677Z,24.5
2017-06-24T06:25:10.756Z,24.6
2017-06-24T06:26:13.012Z,24.6
2017-06-24T06:27:15.431Z,24.6
2017-06-24T06:28:17.513Z,24.5
2017-06-24T06:29:19.927Z,24.5
2017-06-24T06:30:22.009Z,24.4
2017-06-24T06:31:24.099Z,24.4
2017-06-24T06:32:26.181Z,24.3
2017-06-24T06:33:28.942Z,24.4
2017-06-24T06:34:31.031Z,24.3
2017-06-24T06:35:33.132Z,24.4
2017-06-24T06:36:35.213Z,24.3
2017-06-24T06:37:37.296Z,24.3
2017-06-24T06:38:39.370Z,24.3
2017-06-24T06:39:41.442Z,24.3
2017-06-24T06:40:43.515Z,24.3
2017-06-24T06:41:45.611Z,24.3
2017-06-24T06:42:48.382Z,24.2
2017-06-24T06:43:50.455Z,24.3
2017-06-24T06:44:52.519Z,24.3
2017-06-24T06:45:54.610Z,24.3
2017-06-24T06:46:57.219Z,24.3
2017-06-24T06:47:59.278Z,24.3
2017-06-24T06:49:01.347Z,24.3
2017-06-24T06:50:03.411Z,24.2
2017-06-24T06:51:05.505Z,24.2
2017-06-24T06:52:07.567Z,24.2
2017-06-24T06:53:09.653Z,24.2
2017-06-24T06:54:11.721Z,24.2
2017-06-24T06:55:13.801Z,24.2
2017-06-24T06:56:16.443Z,24.1
2017-06-24T06:57:18.521Z,24.1
2017-06-24T06:58:20.597Z,24.1
2017-06-24T06:59:23.014Z,24.1
2017-06-24T07:00:25.082Z,24.1
2017-06-24T07:01:27.153Z,24.1
2017-06-24T07:02:29.248Z,24.2
2017-06-24T07:03:31.314Z,24.1
2017-06-24T07:04:33.404Z,24.1
2017-06-24T07:05:35.824Z,24.2
2017-06-24T07:06:37.916Z,24.1
2017-06-24T07:07:39.988Z,24.2
2017-06-24T07:08:42.061Z,24.2
2017-06-24T07:09:44.556Z,24.2
2017-06-24T07:10:46.621Z,24.2
2017-06-24T07:11:49.261Z,24.2
2017-06-24T07:12:51.342Z,24.2
2017-06-24T07:13:53.403Z,24.2
2017-06-24T07:14:55.487Z,24.3
2017-06-24T07:15:57.557Z,24.3
2017-06-24T07:16:59.626Z,24.3
2017-06-24T07:18:01.702Z,24.3
2017-06-24T07:19:03.760Z,24.3
2017-06-24T07:20:06.171Z,24.4
2017-06-24T07:21:08.275Z,24.4
2017-06-24T07:22:10.336Z,24.4
2017-06-24T07:23:12.440Z,24.5
2017-06-24T07:24:14.504Z,24.5
2017-06-24T07:25:16.570Z,24.5
2017-06-24T07:26:18.969Z,24.5
2017-06-24T07:27:21.046Z,24.6
2017-06-24T07:28:23.470Z,24.6
2017-06-24T07:29:25.562Z,24.7
2017-06-24T07:30:27.676Z,24.8
2017-06-24T07:31:29.747Z,24.9
2017-06-24T07:32:31.807Z,24.9
2017-06-24T07:33:33.878Z,25
2017-06-24T07:34:35.963Z,25.1
2017-06-24T07:35:38.028Z,25.1
2017-06-24T07:36:40.106Z,25.2
2017-06-24T07:37:42.164Z,25.1
2017-06-24T07:38:44.232Z,25.1
2017-06-24T07:39:46.312Z,25.2
2017-06-24T07:40:48.379Z,25.2
2017-06-24T07:41:50.457Z,25.2
2017-06-24T07:42:52.525Z,25.3
2017-06-24T07:43:54.594Z,25.4
2017-06-24T07:44:56.677Z,25.2
2017-06-24T07:45:59.084Z,25.2
2017-06-24T07:47:01.147Z,25.2
2017-06-24T07:48:03.231Z,25.4
2017-06-24T07:49:05.312Z,25.4
2017-06-24T07:50:07.383Z,25.4
2017-06-24T07:51:09.454Z,25.4
2017-06-24T07:52:11.868Z,25.4
2017-06-24T07:53:13.949Z,25.3
2017-06-24T07:54:16.004Z,25.5
2017-06-24T07:55:18.075Z,25.4
2017-06-24T07:56:20.166Z,25.4
2017-06-24T07:57:22.220Z,25.5
2017-06-24T07:58:24.303Z,25.5
2017-06-24T07:59:26.362Z,25.5
2017-06-24T08:00:28.777Z,25.5
2017-06-24T08:01:30.854Z,25.5
2017-06-24T08:02:32.925Z,25.5
2017-06-24T08:03:35.007Z,25.5
2017-06-24T08:04:37.090Z,25.5
2017-06-24T08:05:39.139Z,25.4
2017-06-24T08:06:41.229Z,25.4
2017-06-24T08:07:43.300Z,25.4
2017-06-24T08:08:45.369Z,25.4
2017-06-24T08:09:47.440Z,25.5
2017-06-24T08:10:49.513Z,25.4
2017-06-24T08:11:51.595Z,25.4
2017-06-24T08:12:53.658Z,25.4
2017-06-24T08:13:55.728Z,25.4
2017-06-24T08:14:57.811Z,25.4
2017-06-24T08:15:59.874Z,25.4
2017-06-24T08:17:01.947Z,25.4
2017-06-24T08:18:04.027Z,25.4
2017-06-24T08:19:06.442Z,25.4
2017-06-24T08:20:08.536Z,25.5
2017-06-24T08:21:10.963Z,25.5
2017-06-24T08:22:13.026Z,25.5
2017-06-24T08:23:15.441Z,25.5
2017-06-24T08:24:17.543Z,25.5
2017-06-24T08:25:19.984Z,25.6
2017-06-24T08:26:22.088Z,25.8
2017-06-24T08:27:24.168Z,25.7
2017-06-24T08:28:26.260Z,25.7
2017-06-24T08:29:28.353Z,25.7
2017-06-24T08:30:30.440Z,25.8
2017-06-24T08:31:32.508Z,25.9
2017-06-24T08:32:34.581Z,25.8
2017-06-24T08:33:36.659Z,25.7
2017-06-24T08:34:38.729Z,25.6
2017-06-24T08:35:40.816Z,25.5
2017-06-24T08:36:43.222Z,25.5
2017-06-24T08:37:45.298Z,25.5
2017-06-24T08:38:47.393Z,25.5
2017-06-24T08:39:49.461Z,25.5
2017-06-24T08:40:51.529Z,25.5
2017-06-24T08:41:53.958Z,25.4
2017-06-24T08:42:56.031Z,25.4
2017-06-24T08:43:58.119Z,25.4
2017-06-24T08:45:00.538Z,25.4
2017-06-24T08:46:02.618Z,25.3
2017-06-24T08:47:04.693Z,25.3
2017-06-24T08:48:06.752Z,25.2
2017-06-24T08:49:08.827Z,25.3
2017-06-24T08:50:10.903Z,25.3
2017-06-24T08:51:12.978Z,25.3
2017-06-24T08:52:15.050Z,25.3
2017-06-24T08:53:17.112Z,25.4
2017-06-24T08:54:19.393Z,25.3
2017-06-24T08:55:21.819Z,25.4
2017-06-24T08:56:23.891Z,25.5
2017-06-24T08:57:25.965Z,25.5
2017-06-24T08:58:28.064Z,25.6
2017-06-24T08:59:30.165Z,25.5
2017-06-24T09:00:32.275Z,25.5
2017-06-24T09:01:34.392Z,25.5
2017-06-24T09:02:36.464Z,25.4
2017-06-24T09:03:38.589Z,25.5
2017-06-24T09:04:40.650Z,25.4
2017-06-24T09:05:42.737Z,25.4
2017-06-24T09:06:44.811Z,25.5
2017-06-24T09:07:46.882Z,25.5
2017-06-24T09:08:49.300Z,25.4
2017-06-24T09:09:51.366Z,25.4
2017-06-24T09:10:53.773Z,25.4
2017-06-24T09:11:55.893Z,25.5
2017-06-24T09:12:57.958Z,25.5
2017-06-24T09:14:00.037Z,25.5
2017-06-24T09:15:02.473Z,25.5
2017-06-24T09:16:04.542Z,25.5
2017-06-24T09:17:06.626Z,25.5
2017-06-24T09:18:09.032Z,25.5
2017-06-24T09:19:11.133Z,25.4
2017-06-24T09:20:13.202Z,25.4
2017-06-24T09:21:15.625Z,25.4
2017-06-24T09:22:17.911Z,25.4
2017-06-24T09:23:19.973Z,25.4
2017-06-24T09:24:22.037Z,25.5
2017-06-24T09:25:24.118Z,25.4
2017-06-24T09:26:26.180Z,25.3
2017-06-24T09:27:28.273Z,25.4
2017-06-24T09:28:30.339Z,25.4
2017-06-24T09:29:32.414Z,25.4
2017-06-24T09:30:34.486Z,25.4
2017-06-24T09:31:36.569Z,25.4
2017-06-24T09:32:38.683Z,25.4
2017-06-24T09:33:40.775Z,25.4
2017-06-24T09:34:42.904Z,25.5
2017-06-24T09:35:45.010Z,25.5
2017-06-24T09:36:47.111Z,25.4
2017-06-24T09:37:49.173Z,25.5
2017-06-24T09:38:51.286Z,25.5
2017-06-24T09:39:53.370Z,25.6
2017-06-24T09:40:55.447Z,25.5
2017-06-24T09:41:57.857Z,25.5
2017-06-24T09:42:59.941Z,25.6
2017-06-24T09:44:02.019Z,25.6
2017-06-24T09:45:04.099Z,25.6
2017-06-24T09:46:06.513Z,25.7
2017-06-24T09:47:08.601Z,25.7
2017-06-24T09:48:10.665Z,25.7
2017-06-24T09:49:12.739Z,25.6
2017-06-24T09:50:14.815Z,25.5
2017-06-24T09:51:16.895Z,25.5
2017-06-24T09:52:18.960Z,25.5
2017-06-24T09:53:21.032Z,25.5
2017-06-24T09:54:23.098Z,25.5
2017-06-24T09:55:25.506Z,25.5
2017-06-24T09:56:27.925Z,25.5
2017-06-24T09:57:29.989Z,25.6
2017-06-24T09:58:32.064Z,25.6
2017-06-24T09:59:34.158Z,25.6
2017-06-24T10:00:36.219Z,25.6
2017-06-24T10:01:38.292Z,25.6
2017-06-24T10:02:40.370Z,25.5
2017-06-24T10:03:42.456Z,25.5
2017-06-24T10:04:44.867Z,25.5
2017-06-24T10:05:46.934Z,25.5
2017-06-24T10:06:49.018Z,25.5
2017-06-24T10:07:51.092Z,25.6
2017-06-24T10:08:53.164Z,25.7
2017-06-24T10:09:55.236Z,25.8
2017-06-24T10:10:57.658Z,25.7
2017-06-24T10:12:00.058Z,25.8
2017-06-24T10:13:02.131Z,25.7
2017-06-24T10:14:04.197Z,25.6
2017-06-24T10:15:06.271Z,25.6
2017-06-24T10:16:08.359Z,25.6
2017-06-24T10:17:10.435Z,25.5
2017-06-24T10:18:12.512Z,25.5
2017-06-24T10:19:14.595Z,25.6
2017-06-24T10:20:16.657Z,25.6
2017-06-24T10:21:18.742Z,25.6
2017-06-24T10:22:20.821Z,25.6
2017-06-24T10:23:22.895Z,25.7
2017-06-24T10:24:24.967Z,25.6
2017-06-24T10:25:27.025Z,25.6
2017-06-24T10:26:29.097Z,25.6
2017-06-24T10:27:31.172Z,25.5
2017-06-24T10:28:33.253Z,25.5
2017-06-24T10:29:35.325Z,25.5
2017-06-24T10:30:37.412Z,25.6
2017-06-24T10:31:39.485Z,25.6
2017-06-24T10:32:41.875Z,25.5
2017-06-24T10:33:43.956Z,25.5
2017-06-24T10:34:46.044Z,25.5
2017-06-24T10:35:48.123Z,25.5
2017-06-24T10:36:50.206Z,25.5
2017-06-24T10:37:52.617Z,25.6
2017-06-24T10:38:54.695Z,25.5
2017-06-24T10:39:57.442Z,25.5
2017-06-24T10:40:59.515Z,25.5
2017-06-24T10:42:01.601Z,25.5
2017-06-24T10:43:03.677Z,25.5
2017-06-24T10:44:05.743Z,25.6
2017-06-24T10:45:07.815Z,25.7
2017-06-24T10:46:09.885Z,25.6
2017-06-24T10:47:11.962Z,25.6
2017-06-24T10:48:14.374Z,25.7
2017-06-24T10:49:16.439Z,25.7
2017-06-24T10:50:18.509Z,25.6
2017-06-24T10:51:20.603Z,25.6
2017-06-24T10:52:22.669Z,25.6
2017-06-24T10:53:24.739Z,25.6
2017-06-24T10:54:26.812Z,25.7
2017-06-24T10:55:28.890Z,25.7
2017-06-24T10:56:30.958Z,25.7
2017-06-24T10:57:33.026Z,25.7
2017-06-24T10:58:35.113Z,25.6
2017-06-24T10:59:37.201Z,25.5
2017-06-24T11:00:39.262Z,25.5
2017-06-24T11:01:41.339Z,25.4
2017-06-24T11:02:43.609Z,25.4
2017-06-24T11:03:46.013Z,25.4
2017-06-24T11:04:48.088Z,25.2
2017-06-24T11:05:50.156Z,25.2
2017-06-24T11:06:52.252Z,25.4
2017-06-24T11:07:54.314Z,25.5
2017-06-24T11:08:56.389Z,25.6
2017-06-24T11:09:58.460Z,25.6
2017-06-24T11:11:00.896Z,25.8
2017-06-24T11:12:03.315Z,25.7
2017-06-24T11:13:05.527Z,25.7
2017-06-24T11:14:07.617Z,25.8
2017-06-24T11:15:09.709Z,26.1
2017-06-24T11:16:11.809Z,26.1
2017-06-24T11:17:14.117Z,26
2017-06-24T11:18:16.196Z,26
2017-06-24T11:19:18.466Z,25.8
2017-06-24T11:20:20.539Z,25.8
2017-06-24T11:21:22.684Z,26
2017-06-24T11:22:24.791Z,26.1
2017-06-24T11:23:26.883Z,26.3
2017-06-24T11:24:29.118Z,26.3
2017-06-24T11:25:31.219Z,26.3
2017-06-24T11:26:33.296Z,26.3
2017-06-24T11:27:35.378Z,26.3
2017-06-24T11:28:37.457Z,26.3
2017-06-24T11:29:39.564Z,26.2
2017-06-24T11:30:41.751Z,26.1
2017-06-24T11:31:43.815Z,26.1
2017-06-24T11:32:45.886Z,26
2017-06-24T11:34:45.718Z,26
2017-06-24T11:35:48.091Z,25.9
2017-06-24T11:36:50.164Z,25.8
2017-06-24T11:37:52.199Z,25.8
2017-06-24T11:38:54.236Z,25.9
2017-06-24T11:39:56.276Z,25.9
2017-06-24T11:40:58.643Z,25.9
2017-06-24T11:42:00.670Z,25.9
2017-06-24T11:43:02.960Z,25.9
2017-06-24T11:44:05.672Z,26
2017-06-24T11:45:07.749Z,26.1
2017-06-24T11:46:10.172Z,26.1
2017-06-24T11:47:14.477Z,26.1
2017-06-24T11:48:18.901Z,26
2017-06-24T11:49:24.902Z,25.9
2017-06-24T11:50:32.774Z,25.9
2017-06-24T11:51:42.406Z,25.9
2017-06-24T11:52:46.816Z,25.9
2017-06-24T11:53:50.976Z,26
2017-06-24T11:54:53.931Z,25.9
2017-06-24T11:55:57.083Z,25.8
2017-06-24T11:57:01.466Z,25.7
2017-06-24T11:58:05.280Z,25.6
2017-06-24T11:59:08.176Z,25.7
2017-06-24T12:00:10.778Z,25.7
2017-06-24T12:01:13.556Z,25.6
2017-06-24T12:02:16.055Z,25.7
2017-06-24T12:03:18.513Z,25.6
2017-06-24T12:04:21.702Z,25.6
2017-06-24T12:05:24.355Z,25.6
2017-06-24T12:06:27.327Z,25.5
2017-06-24T12:07:30.744Z,25.6
2017-06-24T12:08:33.335Z,25.7
2017-06-24T12:09:35.879Z,25.8
2017-06-24T12:10:38.248Z,25.9
2017-06-24T12:11:40.639Z,26
2017-06-24T12:12:43.961Z,26
2017-06-24T12:13:46.215Z,25.9
2017-06-24T12:14:48.850Z,25.7
2017-06-24T12:15:51.259Z,25.7
2017-06-24T12:16:53.927Z,25.7
2017-06-24T12:17:56.539Z,25.8
2017-06-24T12:18:58.979Z,25.8
2017-06-24T12:20:01.120Z,25.7
2017-06-24T12:21:03.585Z,25.6
2017-06-24T12:22:06.252Z,25.5
2017-06-24T12:23:09.724Z,25.5
2017-06-24T12:24:12.240Z,25.5
2017-06-24T12:25:14.607Z,25.4
2017-06-24T12:26:18.857Z,25.3
2017-06-24T12:27:23.678Z,25.3
2017-06-24T12:28:29.147Z,25.4
2017-06-24T12:29:33.477Z,25.4
2017-06-24T12:30:36.902Z,25.5
2017-06-24T12:31:40.844Z,25.4
2017-06-24T12:32:47.063Z,25.4
2017-06-24T12:33:51.921Z,25.4
2017-06-24T12:34:54.831Z,25.4
2017-06-24T12:35:56.878Z,25.5
2017-06-24T12:36:58.916Z,25.5
2017-06-24T12:38:00.942Z,25.5
2017-06-24T12:39:02.970Z,25.4
2017-06-24T12:40:05.698Z,25.4
2017-06-24T12:41:07.722Z,25.3
2017-06-24T12:42:09.757Z,25.2
2017-06-24T12:43:11.786Z,25.2
2017-06-24T12:44:13.816Z,25.3
2017-06-24T12:45:15.847Z,25.3
2017-06-24T12:46:17.874Z,25.2
2017-06-24T12:47:19.907Z,25.2
2017-06-24T12:48:21.938Z,25.4
2017-06-24T12:49:23.965Z,25.4
2017-06-24T12:50:26.007Z,25.4
2017-06-24T12:51:28.043Z,25.6
2017-06-24T12:52:30.082Z,25.6
2017-06-24T12:53:32.122Z,25.7
2017-06-24T12:54:34.151Z,25.7
2017-06-24T12:55:36.181Z,25.7
2017-06-24T12:56:38.218Z,25.8
2017-06-24T12:57:40.247Z,25.8
2017-06-24T12:58:42.281Z,26
2017-06-24T12:59:44.649Z,25.8
2017-06-24T13:00:46.679Z,25.5
2017-06-24T13:01:49.046Z,25.5
2017-06-24T13:02:51.077Z,25.5
2017-06-24T13:03:53.457Z,25.6
2017-06-24T13:04:55.485Z,25.5
2017-06-24T13:05:57.854Z,25.6
2017-06-24T13:06:59.882Z,25.6
2017-06-24T13:08:02.596Z,25.6
2017-06-24T13:09:04.683Z,25.7
2017-06-24T13:10:06.716Z,25.6
2017-06-24T13:11:08.753Z,25.6
2017-06-24T13:12:10.790Z,25.6
2017-06-24T13:13:12.819Z,25.7
2017-06-24T13:14:14.859Z,26.1
2017-06-24T13:15:16.892Z,26.1
2017-06-24T13:16:18.927Z,25.9
2017-06-24T13:17:20.954Z,25.9
2017-06-24T13:18:22.978Z,25.8
2017-06-24T13:19:25.363Z,25.9
2017-06-24T13:20:27.737Z,25.9
2017-06-24T13:21:29.774Z,25.9
2017-06-24T13:22:31.801Z,25.9
2017-06-24T13:23:33.828Z,25.9
2017-06-24T13:24:35.860Z,26
2017-06-24T13:25:37.891Z,26.1
2017-06-24T13:26:39.915Z,26.2
2017-06-24T13:27:41.938Z,26.1
2017-06-24T13:28:44.300Z,26.2
2017-06-24T13:29:46.536Z,26.2
2017-06-24T13:30:48.759Z,26.2
2017-06-24T13:31:50.810Z,26.1
2017-06-24T13:32:52.834Z,26.1
2017-06-24T13:33:54.876Z,26
2017-06-24T13:34:57.243Z,26
2017-06-24T13:35:59.270Z,26.2
2017-06-24T13:37:01.303Z,25.9
2017-06-24T13:38:03.331Z,25.8
2017-06-24T13:39:05.362Z,25.7
2017-06-24T13:40:07.602Z,25.6
2017-06-24T13:41:09.633Z,25.5
2017-06-24T13:42:11.665Z,25.5
2017-06-24T13:43:13.693Z,25.4
2017-06-24T13:44:15.728Z,25.5
2017-06-24T13:45:17.755Z,25.6
2017-06-24T13:46:19.772Z,25.7
2017-06-24T13:47:21.803Z,25.7
2017-06-24T13:48:23.865Z,25.7
2017-06-24T13:49:25.893Z,25.7
2017-06-24T13:50:27.951Z,25.8